Time;durP1;ratioP1;P1;durP2;ratioP2;P2;SDS_P1;SDS_P2;PMS_P1;PMS_P2;Temp;Humidity;BMP_temperature;BMP_pressure;BME280_temperature;BME280_humidity;BME280_pressure;Samples;Min_cycle;Max_cycle;Signal;HPM_P1;HPM_P2
2023/08/22 00:01:04;;;;;;;6.10;3.45;;;;;;;29.24;44.48;102177.31;5077552;28;20381;-67
2023/08/22 00:03:29;;;;;;;6.22;3.28;;;;;;;28.69;45.62;102178.34;5080115;28;20111;-66
2023/08/22 00:05:56;;;;;;;8.93;3.28;;;;;;;28.86;44.86;102180.75;5078917;28;20031;-66
2023/08/22 00:08:21;;;;;;;6.85;3.50;;;;;;;28.81;45.11;102184.69;5076736;28;20153;-66
2023/08/22 00:10:47;;;;;;;7.53;3.42;;;;;;;28.88;45.38;102186.91;5081258;28;20028;-67
2023/08/22 00:13:12;;;;;;;11.57;3.83;;;;;;;28.81;45.74;102184.69;5088172;28;20027;-67
2023/08/22 00:15:37;;;;;;;7.82;3.47;;;;;;;28.84;45.13;102174.63;5088548;28;20081;-66
2023/08/22 00:18:03;;;;;;;6.35;3.63;;;;;;;28.86;45.00;102164.59;5086958;28;20069;-66
2023/08/22 00:20:29;;;;;;;9.00;3.72;;;;;;;29.22;44.03;102160.41;5088681;28;20046;-66
2023/08/22 00:22:54;;;;;;;6.85;3.60;;;;;;;28.90;44.56;102168.81;5087958;28;20028;-65
2023/08/22 00:25:19;;;;;;;4.43;2.90;;;;;;;28.67;44.96;102162.28;5077506;28;20492;-66
2023/08/22 00:27:45;;;;;;;7.28;3.05;;;;;;;28.46;46.14;102161.84;5079065;28;20031;-66
2023/08/22 00:30:10;;;;;;;7.05;3.45;;;;;;;28.29;46.16;102151.31;5080702;28;20090;-67
2023/08/22 00:32:36;;;;;;;6.25;3.20;;;;;;;28.46;45.72;102148.38;5084940;28;20403;-66
2023/08/22 00:35:02;;;;;;;5.70;3.67;;;;;;;28.76;45.29;102150.06;5071094;28;20108;-66
2023/08/22 00:37:27;;;;;;;5.65;3.08;;;;;;;28.55;45.09;102142.41;5082895;28;20036;-66
2023/08/22 00:39:54;;;;;;;5.70;3.25;;;;;;;28.58;45.22;102150.28;5069336;28;20103;-66
2023/08/22 00:42:19;;;;;;;7.65;4.05;;;;;;;28.78;44.59;102148.09;5067542;28;20016;-66
2023/08/22 00:44:45;;;;;;;8.95;3.75;;;;;;;28.37;45.74;102143.59;5087052;28;20472;-66
2023/08/22 00:47:10;;;;;;;7.25;3.47;;;;;;;28.58;45.64;102144.03;5081871;28;20036;-66
2023/08/22 00:49:37;;;;;;;6.05;4.20;;;;;;;28.14;46.60;102147.78;5078454;28;20737;-66
2023/08/22 00:52:04;;;;;;;6.05;4.00;;;;;;;28.34;46.16;102138.44;5089701;28;20107;-66
2023/08/22 00:54:30;;;;;;;8.15;4.30;;;;;;;28.19;46.25;102141.19;5081059;28;20400;-66
2023/08/22 00:56:56;;;;;;;7.60;3.80;;;;;;;28.13;46.76;102136.19;5076207;28;20024;-66
2023/08/22 00:59:24;;;;;;;10.38;4.45;;;;;;;28.08;46.77;102133.78;5082399;28;20047;-66
2023/08/22 01:01:50;;;;;;;7.35;4.47;;;;;;;28.24;46.09;102128.28;5083552;28;20118;-66
2023/08/22 01:04:15;;;;;;;9.65;4.50;;;;;;;28.32;46.04;102126.94;5083807;28;20101;-67
2023/08/22 01:06:50;;;;;;;5.35;4.22;;;;;;;27.90;46.98;102114.31;5081734;28;20043;-66
2023/08/22 01:09:49;;;;;;;9.15;4.28;;;;;;;28.04;46.29;102115.25;5070400;28;20522;-66
2023/08/22 01:12:33;;;;;;;7.13;3.58;;;;;;;27.77;46.94;102121.41;5069594;28;20115;-66
2023/08/22 01:15:24;;;;;;;9.68;4.68;;;;;;;28.30;46.22;102115.41;5077199;28;20028;-67
2023/08/22 01:17:52;;;;;;;13.07;4.72;;;;;;;27.98;46.49;102115.63;5082315;28;20036;-66
2023/08/22 01:20:18;;;;;;;7.30;4.40;;;;;;;27.20;48.32;102123.06;5085437;28;20058;-66
2023/08/22 01:22:43;;;;;;;6.65;4.40;;;;;;;27.67;47.15;102122.94;5087393;28;20500;-66
2023/08/22 01:25:09;;;;;;;8.52;4.45;;;;;;;27.55;47.25;102120.06;5083223;28;20035;-66
2023/08/22 01:28:00;;;;;;;8.30;4.30;;;;;;;27.55;47.30;102120.06;5085146;28;20156;-66
2023/08/22 01:30:51;;;;;;;8.70;4.28;;;;;;;27.92;46.56;102127.66;5075044;28;20119;-65
2023/08/22 01:33:43;;;;;;;5.82;4.13;;;;;;;27.73;47.18;102130.63;5080122;28;20060;-68
2023/08/22 01:36:10;;;;;;;7.72;4.30;;;;;;;27.73;47.20;102130.63;5075294;28;20435;-67
2023/08/22 01:38:39;;;;;;;8.55;4.45;;;;;;;27.69;47.38;102129.09;5085849;28;20547;-68
2023/08/22 01:41:05;;;;;;;8.18;4.40;;;;;;;27.73;47.06;102133.31;5086239;28;20065;-64
2023/08/22 01:43:33;;;;;;;10.70;4.05;;;;;;;27.54;47.69;102126.38;5084724;28;20028;-65
2023/08/22 01:45:59;;;;;;;6.10;3.97;;;;;;;27.84;47.26;102130.81;5082036;28;20040;-66
2023/08/22 01:48:24;;;;;;;7.07;3.28;;;;;;;27.85;47.10;102131.66;5081496;28;20031;-65
2023/08/22 01:50:49;;;;;;;5.50;3.63;;;;;;;27.63;47.49;102122.28;5091231;28;20043;-67
2023/08/22 01:53:15;;;;;;;5.53;3.38;;;;;;;27.91;46.63;102124.06;5090089;28;20027;-67
2023/08/22 01:55:40;;;;;;;6.43;3.55;;;;;;;27.44;48.20;102119.88;5085092;28;20606;-67
2023/08/22 01:58:10;;;;;;;7.95;4.00;;;;;;;27.58;47.73;102119.88;5084440;28;20127;-67
2023/08/22 02:00:37;;;;;;;5.63;4.05;;;;;;;27.74;47.48;102127.00;5084358;28;20035;-67
2023/08/22 02:03:03;;;;;;;6.30;3.47;;;;;;;27.59;47.67;102121.59;5090142;28;20028;-67
2023/08/22 02:05:28;;;;;;;6.35;2.78;;;;;;;27.71;47.32;102121.78;5089596;28;20031;-67
2023/08/22 02:07:53;;;;;;;4.65;3.00;;;;;;;27.82;47.10;102127.38;5082516;28;20025;-66
2023/08/22 02:10:19;;;;;;;5.55;3.63;;;;;;;27.57;47.56;102118.16;5075418;28;20028;-67
2023/08/22 02:12:44;;;;;;;8.07;3.50;;;;;;;27.70;46.95;102118.25;5086926;28;20020;-67
2023/08/22 02:15:10;;;;;;;7.20;3.75;;;;;;;27.65;47.32;102108.75;5089622;28;20020;-67
2023/08/22 02:17:35;;;;;;;4.63;3.17;;;;;;;27.85;46.55;102110.16;5089804;28;20082;-66
2023/08/22 02:20:01;;;;;;;5.18;2.97;;;;;;;27.72;46.92;102120.84;5088222;28;20555;-67
2023/08/22 02:22:26;;;;;;;5.05;3.22;;;;;;;27.72;47.19;102119.00;5092322;28;20032;-66
2023/08/22 02:24:52;;;;;;;9.30;3.15;;;;;;;27.65;47.26;102119.50;5082146;28;20015;-66
2023/08/22 02:27:17;;;;;;;5.65;3.00;;;;;;;27.42;47.50;102109.22;5086115;28;20027;-66
2023/08/22 02:29:43;;;;;;;5.65;2.70;;;;;;;27.66;47.12;102115.88;5089503;28;20035;-66
2023/08/22 02:32:08;;;;;;;4.82;3.22;;;;;;;27.83;46.31;102122.84;5088801;28;20119;-66
2023/08/22 02:34:34;;;;;;;6.10;2.97;;;;;;;27.29;47.64;102115.41;5070980;28;20343;-66
2023/08/22 02:37:00;;;;;;;4.15;2.63;;;;;;;27.39;47.37;102112.09;5083752;28;20020;-66
2023/08/22 02:39:25;;;;;;;5.35;2.85;;;;;;;27.58;46.99;102106.44;5090518;28;20027;-66
2023/08/22 02:41:50;;;;;;;6.75;2.83;;;;;;;27.29;47.78;102099.31;5086855;28;20381;-66
2023/08/22 02:44:16;;;;;;;7.03;2.80;;;;;;;27.13;48.47;102097.53;5073185;28;20464;-66
2023/08/22 02:46:41;;;;;;;5.78;2.70;;;;;;;27.38;47.93;102088.03;5070554;28;20024;-66
2023/08/22 02:49:07;;;;;;;4.15;2.80;;;;;;;27.02;48.67;102091.97;5081782;28;20116;-66
2023/08/22 02:51:33;;;;;;;3.35;2.65;;;;;;;27.04;48.86;102088.25;5082530;28;20027;-66
2023/08/22 02:53:58;;;;;;;7.88;2.55;;;;;;;27.38;47.62;102083.53;5074357;28;20027;-67
2023/08/22 02:56:24;;;;;;;6.60;2.92;;;;;;;27.36;47.67;102085.44;5089387;28;20506;-66
2023/08/22 02:58:50;;;;;;;3.78;2.17;;;;;;;27.27;47.86;102088.66;5080519;28;20215;-66
2023/08/22 03:01:16;;;;;;;6.88;2.90;;;;;;;27.33;47.47;102096.34;5069809;28;20090;-66
2023/08/22 03:03:43;;;;;;;5.53;2.80;;;;;;;27.09;48.58;102102.25;5083541;28;20020;-66
2023/08/22 03:06:09;;;;;;;7.40;3.03;;;;;;;27.06;48.48;102091.69;5082820;28;20042;-66
2023/08/22 03:08:35;;;;;;;4.22;2.55;;;;;;;27.22;48.25;102086.25;5078755;28;20388;-66
2023/08/22 03:11:01;;;;;;;4.22;2.47;;;;;;;27.35;47.76;102085.50;5078639;28;20028;-66
2023/08/22 03:13:28;;;;;;;6.30;2.80;;;;;;;26.94;48.74;102094.25;5072307;28;20032;-66
2023/08/22 03:15:54;;;;;;;11.40;2.85;;;;;;;26.78;48.98;102083.56;5078697;28;20028;-67
2023/08/22 03:18:19;;;;;;;6.10;2.85;;;;;;;26.68;49.02;102085.88;5082682;28;20020;-67
2023/08/22 03:20:46;;;;;;;4.22;2.45;;;;;;;26.78;49.02;102087.13;5070745;28;20567;-66
2023/08/22 03:23:11;;;;;;;3.38;2.45;;;;;;;25.95;51.55;102086.44;5088763;28;20028;-66
2023/08/22 03:25:37;;;;;;;7.80;2.90;;;;;;;26.16;51.00;102085.28;5070408;28;20427;-66
2023/08/22 03:28:02;;;;;;;5.78;2.70;;;;;;;26.40;49.94;102087.50;5070713;28;20308;-66
2023/08/22 03:30:28;;;;;;;3.47;2.42;;;;;;;26.88;48.96;102088.28;5083835;28;20043;-66
2023/08/22 03:32:53;;;;;;;4.22;2.08;;;;;;;26.35;50.35;102085.09;5076397;28;20500;-66
2023/08/22 03:35:19;;;;;;;4.45;2.58;;;;;;;26.53;49.61;102077.81;5076975;28;20488;-66
2023/08/22 03:37:44;;;;;;;6.68;3.10;;;;;;;26.21;50.50;102080.53;5069049;28;20021;-66
2023/08/22 03:40:10;;;;;;;5.07;2.90;;;;;;;25.84;51.93;102074.50;5088728;28;20386;-66
2023/08/22 03:42:35;;;;;;;12.07;3.38;;;;;;;26.12;51.72;102072.13;5082263;28;20400;-66
2023/08/22 03:45:01;;;;;;;7.93;2.83;;;;;;;25.87;51.94;102068.97;5079520;28;20073;-66
2023/08/22 03:47:26;;;;;;;7.47;3.97;;;;;;;26.23;51.12;102073.25;5088142;28;20027;-66
2023/08/22 03:49:52;;;;;;;7.65;2.90;;;;;;;26.46;49.92;102071.06;5072983;28;20020;-67
2023/08/22 03:52:17;;;;;;;7.75;3.42;;;;;;;26.49;50.39;102065.53;5085905;28;20024;-66
2023/08/22 03:54:42;;;;;;;8.88;2.90;;;;;;;26.79;49.65;102056.66;5087247;28;20590;-67
2023/08/22 03:57:08;;;;;;;5.30;2.85;;;;;;;26.40;50.36;102066.06;5088511;28;20035;-67
2023/08/22 03:59:33;;;;;;;6.63;2.90;;;;;;;26.58;49.75;102058.75;5073566;28;20094;-66
2023/08/22 04:01:59;;;;;;;3.72;2.65;;;;;;;26.74;49.32;102048.03;5079110;28;20024;-66
2023/08/22 04:04:24;;;;;;;8.32;2.90;;;;;;;26.21;50.48;102051.06;5087826;28;20109;-66
2023/08/22 04:06:50;;;;;;;6.47;3.10;;;;;;;25.95;51.36;102057.81;5087184;28;20032;-66
2023/08/22 04:09:15;;;;;;;9.60;3.22;;;;;;;26.42;50.16;102048.09;5077064;28;20034;-66
2023/08/22 04:11:43;;;;;;;8.75;3.10;;;;;;;26.39;50.11;102049.13;5073600;28;20429;-67
2023/08/22 04:14:08;;;;;;;7.13;3.08;;;;;;;26.33;50.15;102053.97;5081172;28;20400;-66
2023/08/22 04:16:33;;;;;;;7.63;3.28;;;;;;;26.37;50.17;102060.88;5088047;28;20028;-66
2023/08/22 04:18:59;;;;;;;7.28;3.05;;;;;;;26.31;49.92;102056.75;5084303;28;20069;-67
2023/08/22 04:21:25;;;;;;;6.93;4.03;;;;;;;26.39;49.69;102062.53;5084204;28;20024;-66
2023/08/22 04:23:50;;;;;;;8.25;3.25;;;;;;;26.35;49.76;102060.97;5069735;28;20824;-66
2023/08/22 04:26:15;;;;;;;4.82;3.03;;;;;;;26.56;49.24;102061.53;5073398;28;20446;-66
2023/08/22 04:28:41;;;;;;;5.05;2.65;;;;;;;26.13;50.39;102069.38;5078968;28;20043;-66
2023/08/22 04:31:06;;;;;;;6.40;3.42;;;;;;;26.24;50.42;102066.94;5075675;28;20024;-66
2023/08/22 04:33:32;;;;;;;5.13;2.78;;;;;;;26.00;50.78;102069.16;5083018;28;20030;-66
2023/08/22 04:35:57;;;;;;;5.68;3.13;;;;;;;26.24;49.94;102066.94;5074724;28;20094;-66
2023/08/22 04:38:22;;;;;;;11.68;3.65;;;;;;;26.04;50.45;102073.41;5083530;28;20034;-66
2023/08/22 04:40:48;;;;;;;5.80;3.55;;;;;;;26.15;49.80;102071.97;5072105;28;20465;-66
2023/08/22 04:43:13;;;;;;;4.90;3.38;;;;;;;26.04;50.54;102078.78;5084880;28;20020;-66
2023/08/22 04:45:39;;;;;;;9.13;3.70;;;;;;;26.21;50.15;102077.84;5074813;28;20115;-66
2023/08/22 04:48:05;;;;;;;6.30;3.30;;;;;;;25.94;50.38;102064.16;5066928;28;20043;-65
2023/08/22 04:50:30;;;;;;;4.88;2.53;;;;;;;26.19;50.03;102069.00;5076241;28;20028;-66
2023/08/22 04:52:56;;;;;;;4.18;2.58;;;;;;;26.05;50.18;102071.63;5067584;28;20485;-66
2023/08/22 04:55:22;;;;;;;3.78;2.65;;;;;;;26.22;49.82;102063.47;5077222;28;20561;-66
2023/08/22 04:57:47;;;;;;;5.55;2.92;;;;;;;26.21;50.22;102061.75;5073639;28;20063;-66
2023/08/22 05:00:13;;;;;;;7.97;2.53;;;;;;;26.05;50.42;102060.91;5039026;28;20121;-66
2023/08/22 05:02:39;;;;;;;4.95;2.88;;;;;;;26.16;50.13;102053.13;5041949;28;20511;-65
2023/08/22 05:05:06;;;;;;;9.93;2.83;;;;;;;26.13;50.57;102050.63;5062407;28;20016;-66
2023/08/22 05:07:32;;;;;;;6.93;3.10;;;;;;;25.95;50.89;102060.50;5044822;28;20047;-66
2023/08/22 05:09:57;;;;;;;5.95;2.70;;;;;;;26.12;50.44;102062.28;5047604;28;20025;-66
2023/08/22 05:12:23;;;;;;;5.72;3.20;;;;;;;26.21;49.83;102061.75;5039974;28;20029;-66
2023/08/22 05:14:48;;;;;;;8.60;3.50;;;;;;;26.20;50.09;102060.03;5049777;28;20032;-66
2023/08/22 05:17:14;;;;;;;12.05;3.55;;;;;;;25.96;50.99;102061.38;5071391;28;20028;-67
2023/08/22 05:19:40;;;;;;;6.47;3.97;;;;;;;25.95;50.79;102065.00;5045647;28;20013;-68
2023/08/22 05:22:05;;;;;;;6.65;3.50;;;;;;;26.19;50.61;102063.66;5044416;28;20064;-67
2023/08/22 05:24:31;;;;;;;9.60;3.88;;;;;;;26.30;50.28;102059.50;5037864;28;20028;-67
2023/08/22 05:26:56;;;;;;;10.90;3.10;;;;;;;26.49;49.87;102060.16;5036774;28;20401;-67
2023/08/22 05:29:22;;;;;;;11.85;3.60;;;;;;;26.38;50.32;102068.81;5062793;28;20461;-67
2023/08/22 05:31:47;;;;;;;11.68;3.90;;;;;;;26.85;49.41;102075.06;5043569;28;21219;-67
2023/08/22 05:34:14;;;;;;;6.95;3.67;;;;;;;26.75;49.47;102072.06;5054701;28;20024;-67
2023/08/22 05:36:39;;;;;;;6.90;4.15;;;;;;;27.18;48.53;102084.72;5051149;28;20032;-67
2023/08/22 05:39:06;;;;;;;8.38;3.85;;;;;;;26.77;49.39;102080.03;5043770;28;20397;-67
2023/08/22 05:41:31;;;;;;;5.55;3.47;;;;;;;26.96;49.30;102078.94;5034812;28;20060;-67
2023/08/22 05:43:57;;;;;;;13.60;3.58;;;;;;;27.00;49.34;102080.47;5040311;28;20033;-67
2023/08/22 05:46:22;;;;;;;5.60;3.35;;;;;;;27.03;49.30;102085.66;5064566;28;20032;-67
2023/08/22 05:48:48;;;;;;;7.85;4.05;;;;;;;27.07;49.46;102092.56;5044455;28;20028;-67
2023/08/22 05:51:13;;;;;;;8.15;3.50;;;;;;;26.77;49.63;102096.09;5047650;28;20029;-67
2023/08/22 05:53:38;;;;;;;6.82;3.50;;;;;;;27.13;48.96;102091.31;5061085;28;20032;-67
2023/08/22 05:56:04;;;;;;;6.63;3.30;;;;;;;27.16;48.67;102094.69;5041623;28;20031;-67
2023/08/22 05:58:29;;;;;;;7.70;3.33;;;;;;;27.05;49.27;102094.44;5055962;28;20056;-66
2023/08/22 06:00:55;;;;;;;5.32;3.53;;;;;;;27.06;49.16;102090.81;5033889;28;20779;-66
2023/08/22 06:03:20;;;;;;;6.53;3.72;;;;;;;27.16;49.35;102097.38;5034468;28;20035;-66
2023/08/22 06:05:46;;;;;;;9.35;4.47;;;;;;;27.31;49.47;102087.50;5033252;28;20029;-66
2023/08/22 06:08:11;;;;;;;7.25;3.20;;;;;;;27.60;48.67;102092.91;5052420;28;20036;-66
2023/08/22 06:10:37;;;;;;;7.57;3.67;;;;;;;26.89;49.56;102092.69;5051442;28;20028;-65
2023/08/22 06:13:03;;;;;;;7.20;2.92;;;;;;;26.85;49.93;102096.53;5033584;28;20027;-66
2023/08/22 06:15:28;;;;;;;5.30;3.10;;;;;;;27.19;49.41;102089.13;5034671;28;20060;-66
2023/08/22 06:17:54;;;;;;;8.52;3.30;;;;;;;27.21;48.89;102092.56;5033349;28;20067;-67
2023/08/22 06:20:19;;;;;;;6.57;3.30;;;;;;;26.92;49.80;102094.34;5051888;28;20116;-66
2023/08/22 06:22:45;;;;;;;4.88;2.70;;;;;;;26.02;51.26;102098.56;5033842;28;20032;-66
2023/08/22 06:25:10;;;;;;;5.93;3.38;;;;;;;27.23;48.56;102096.03;5034168;28;20021;-66
2023/08/22 06:27:35;;;;;;;9.68;2.88;;;;;;;26.71;50.04;102099.16;5032341;28;20489;-66
2023/08/22 06:30:02;;;;;;;4.38;2.72;;;;;;;27.58;47.65;102093.00;5033570;28;20052;-67
2023/08/22 06:32:27;;;;;;;7.88;2.60;;;;;;;27.76;46.72;102090.13;5034107;28;20031;-67
2023/08/22 06:34:53;;;;;;;5.35;2.90;;;;;;;27.29;48.02;102083.22;5050939;28;20096;-67
2023/08/22 06:37:19;;;;;;;6.03;3.10;;;;;;;26.90;49.12;102091.75;5033949;28;20025;-66
2023/08/22 06:39:44;;;;;;;6.00;2.72;;;;;;;26.50;51.03;102102.09;5051515;28;20044;-67
2023/08/22 06:42:09;;;;;;;7.82;3.42;;;;;;;25.88;51.76;102089.47;5051458;28;20029;-67
2023/08/22 06:44:35;;;;;;;4.97;2.40;;;;;;;26.54;50.84;102084.00;5033516;28;20021;-67
2023/08/22 06:47:02;;;;;;;5.93;3.25;;;;;;;27.84;47.92;102095.03;5052042;28;20028;-67
2023/08/22 06:49:27;;;;;;;6.63;2.72;;;;;;;27.56;48.75;102097.63;5033144;28;20112;-67
2023/08/22 06:51:53;;;;;;;6.43;2.70;;;;;;;26.97;50.79;102086.88;5051324;28;20434;-67
2023/08/22 06:54:18;;;;;;;4.28;2.35;;;;;;;27.29;49.58;102085.91;5033730;28;20052;-67
2023/08/22 06:56:44;;;;;;;9.43;3.22;;;;;;;26.99;50.54;102084.09;5032429;28;20028;-67
2023/08/22 06:59:09;;;;;;;6.90;2.55;;;;;;;26.87;49.88;102086.56;5054590;28;20113;-67
2023/08/22 07:01:35;;;;;;;6.43;2.40;;;;;;;28.44;46.69;102100.09;5070924;28;20024;-67
2023/08/22 07:04:00;;;;;;;7.32;2.67;;;;;;;27.53;48.56;102105.00;5070015;28;20024;-67
2023/08/22 07:06:26;;;;;;;6.75;2.97;;;;;;;27.69;48.06;102104.91;5069903;28;20032;-67
2023/08/22 07:08:51;;;;;;;6.95;2.97;;;;;;;27.88;47.92;102105.47;5069208;28;20347;-67
2023/08/22 07:11:16;;;;;;;4.72;2.63;;;;;;;28.24;47.10;102106.78;5070181;28;20116;-67
2023/08/22 07:13:42;;;;;;;20.52;3.60;;;;;;;29.10;45.73;102118.19;5070761;28;20122;-67
2023/08/22 07:16:07;;;;;;;7.43;3.00;;;;;;;28.85;44.85;102122.53;5069355;28;20040;-67
2023/08/22 07:18:33;;;;;;;4.15;2.35;;;;;;;28.33;46.22;102125.94;5069848;28;20023;-68
2023/08/22 07:21:07;;;;;;;7.43;3.20;;;;;;;29.05;44.61;102125.69;5069148;28;20447;-67
2023/08/22 07:23:32;;;;;;;4.72;2.60;;;;;;;29.50;43.80;102128.88;5069333;28;20023;-67
2023/08/22 07:25:58;;;;;;;8.50;2.60;;;;;;;29.54;43.78;102124.13;5070543;28;20020;-67
2023/08/22 07:28:23;;;;;;;9.80;2.80;;;;;;;28.37;44.86;102130.16;5069240;28;20028;-67
2023/08/22 07:30:49;;;;;;;4.40;2.30;;;;;;;29.95;42.09;102132.00;5070188;28;20052;-67
2023/08/22 07:33:14;;;;;;;5.03;2.47;;;;;;;29.34;43.48;102128.22;5069433;28;20393;-67
2023/08/22 07:35:41;;;;;;;7.43;2.60;;;;;;;30.00;42.53;102130.78;5070790;28;20433;-67
2023/08/22 07:38:07;;;;;;;5.75;3.08;;;;;;;30.22;42.33;102136.31;5069003;28;20119;-65
2023/08/22 07:40:36;;;;;;;6.20;2.72;;;;;;;30.17;42.32;102138.53;5069820;28;20550;-66
2023/08/22 07:43:03;;;;;;;6.70;2.90;;;;;;;30.39;41.96;102142.31;5070843;28;20035;-65
2023/08/22 07:45:29;;;;;;;7.05;2.45;;;;;;;29.68;43.03;102142.88;5069001;28;20085;-66
2023/08/22 07:47:54;;;;;;;7.13;3.30;;;;;;;29.65;44.00;102144.91;5068590;28;20705;-66
2023/08/22 07:50:19;;;;;;;7.60;3.15;;;;;;;29.60;43.48;102151.50;5070662;28;20051;-66
2023/08/22 07:52:45;;;;;;;5.97;2.70;;;;;;;28.96;44.60;102166.69;5067912;28;20131;-66
2023/08/22 07:55:10;;;;;;;5.45;2.70;;;;;;;29.17;44.70;102159.84;5069101;28;20086;-65
2023/08/22 07:57:36;;;;;;;6.38;2.50;;;;;;;29.36;44.22;102155.91;5069947;28;20028;-66
2023/08/22 08:00:03;;;;;;;7.32;2.80;;;;;;;28.44;45.89;102155.72;5068645;28;20059;-65
2023/08/22 08:02:29;;;;;;;8.18;3.30;;;;;;;29.40;44.64;102149.34;5070037;28;20024;-66
2023/08/22 08:04:55;;;;;;;8.85;3.05;;;;;;;28.76;46.35;102155.44;5069348;28;20399;-66
2023/08/22 08:07:20;;;;;;;6.15;2.92;;;;;;;29.46;44.47;102154.31;5069070;28;20494;-66
2023/08/22 08:09:46;;;;;;;4.95;3.10;;;;;;;30.00;43.88;102146.97;5069564;28;20045;-66
2023/08/22 08:12:12;;;;;;;10.40;3.92;;;;;;;30.06;42.89;102141.13;5068161;28;20487;-65
2023/08/22 08:14:37;;;;;;;8.45;3.35;;;;;;;30.49;43.09;102153.31;5069757;28;20048;-66
2023/08/22 08:17:03;;;;;;;10.18;4.57;;;;;;;29.94;43.70;102151.81;5068327;28;20551;-66
2023/08/22 08:19:28;;;;;;;8.98;4.00;;;;;;;28.74;45.52;102160.03;5068239;28;20115;-66
2023/08/22 08:21:54;;;;;;;10.50;3.88;;;;;;;29.38;44.57;102145.91;5068317;28;20068;-65
2023/08/22 08:24:19;;;;;;;6.50;3.08;;;;;;;29.29;45.12;102155.47;5068275;28;20553;-65
2023/08/22 08:26:44;;;;;;;10.68;3.83;;;;;;;29.76;44.28;102140.50;5069046;28;20392;-66
2023/08/22 08:29:10;;;;;;;8.13;4.05;;;;;;;30.04;43.67;102143.06;5069307;28;20035;-66
2023/08/22 08:31:35;;;;;;;5.93;3.10;;;;;;;29.36;44.40;102142.44;5069436;28;20034;-65
2023/08/22 08:34:01;;;;;;;6.78;3.40;;;;;;;30.25;42.88;102140.63;5067834;28;20031;-66
2023/08/22 08:36:26;;;;;;;5.45;3.17;;;;;;;29.26;43.61;102131.44;5068576;28;20111;-65
2023/08/22 08:38:52;;;;;;;6.78;3.30;;;;;;;30.16;42.32;102131.41;5067759;28;20104;-65
2023/08/22 08:41:19;;;;;;;6.43;3.20;;;;;;;30.63;41.47;102132.41;5068060;28;20473;-66
2023/08/22 08:43:46;;;;;;;5.28;3.42;;;;;;;31.00;40.00;102130.59;5067589;28;20028;-65
2023/08/22 08:46:13;;;;;;;4.70;3.10;;;;;;;30.88;40.43;102138.66;5068329;28;20020;-65
2023/08/22 08:48:40;;;;;;;6.25;3.40;;;;;;;31.67;39.47;102129.03;5068467;28;20066;-66
2023/08/22 08:51:07;;;;;;;5.45;3.22;;;;;;;31.01;39.86;102132.31;5067957;28;20021;-65
2023/08/22 08:53:33;;;;;;;6.03;3.40;;;;;;;32.63;38.23;102144.63;5068303;28;20025;-65
2023/08/22 08:55:59;;;;;;;7.05;3.38;;;;;;;30.69;40.82;102143.72;5067356;28;20024;-66
2023/08/22 08:58:25;;;;;;;4.07;2.92;;;;;;;32.63;38.45;102139.22;5063192;28;20045;-65
2023/08/22 09:00:53;;;;;;;6.32;3.63;;;;;;;31.87;38.84;102140.94;5031293;28;20059;-65
2023/08/22 09:03:19;;;;;;;4.32;2.97;;;;;;;32.97;38.05;102149.94;5031025;28;20082;-65
2023/08/22 09:05:44;;;;;;;6.00;3.45;;;;;;;31.04;39.84;102151.88;5048752;28;20029;-66
2023/08/22 09:08:20;;;;;;;10.00;3.83;;;;;;;32.18;39.89;102160.09;5030787;28;20064;-65
2023/08/22 09:10:52;;;;;;;8.05;3.78;;;;;;;32.40;38.80;102161.94;5048979;28;20029;-65
2023/08/22 09:13:25;;;;;;;6.18;3.58;;;;;;;32.84;37.79;102151.97;5031585;28;20029;-65
2023/08/22 09:15:57;;;;;;;6.55;3.67;;;;;;;32.89;38.14;102160.56;5030503;28;20039;-66
2023/08/22 09:18:22;;;;;;;6.93;3.28;;;;;;;34.01;36.10;102137.41;5031282;28;20039;-66
2023/08/22 09:20:47;;;;;;;7.30;3.00;;;;;;;33.20;37.25;102130.81;5048669;28;20469;-65
2023/08/22 09:23:40;;;;;;;5.53;3.28;;;;;;;31.79;39.36;102144.25;5048961;28;20025;-65
2023/08/22 09:26:05;;;;;;;8.88;3.50;;;;;;;32.14;39.54;102144.16;5027873;28;20123;-65
2023/08/22 09:28:30;;;;;;;6.60;3.30;;;;;;;32.00;40.14;102140.81;5049416;28;20116;-66
2023/08/22 09:30:59;;;;;;;6.93;2.67;;;;;;;31.92;40.20;102153.13;5030422;28;20032;-69
2023/08/22 09:33:24;;;;;;;8.00;2.90;;;;;;;30.98;41.31;102160.38;5048877;28;20492;-66
2023/08/22 09:35:55;;;;;;;6.20;3.00;;;;;;;30.79;42.27;102155.56;5030794;28;20179;-65
2023/08/22 09:38:21;;;;;;;4.50;2.85;;;;;;;31.84;40.63;102158.28;5031146;28;20032;-66
2023/08/22 09:40:51;;;;;;;8.50;3.00;;;;;;;31.78;40.71;102164.19;5048189;28;20032;-66
2023/08/22 09:43:19;;;;;;;3.78;2.13;;;;;;;30.68;41.76;102155.50;5048546;28;20453;-66
2023/08/22 09:45:45;;;;;;;8.15;2.72;;;;;;;31.48;40.71;102154.78;5048664;28;20104;-66
2023/08/22 09:48:21;;;;;;;9.43;3.10;;;;;;;32.21;39.95;102159.88;5048718;28;20496;-65
2023/08/22 09:50:51;;;;;;;4.90;2.40;;;;;;;32.78;38.33;102160.59;5047871;28;20024;-66
2023/08/22 09:53:19;;;;;;;5.20;2.13;;;;;;;32.31;39.28;102150.00;5049032;28;20035;-66
2023/08/22 09:55:45;;;;;;;4.55;2.00;;;;;;;31.60;39.59;102152.97;5048503;28;20036;-66
2023/08/22 09:58:11;;;;;;;6.18;2.10;;;;;;;31.69;39.06;102159.50;5035387;28;20048;-66
2023/08/22 10:00:37;;;;;;;1.48;1.20;;;;;;;31.15;40.01;102155.56;5068654;28;20025;-65
2023/08/22 10:03:04;;;;;;;3.80;0.88;;;;;;;31.03;39.80;102157.38;5067979;28;20020;-66
2023/08/22 10:05:32;;;;;;;2.72;1.02;;;;;;;30.89;39.59;102156.56;5104583;28;20032;-65
2023/08/22 10:07:58;;;;;;;1.40;0.70;;;;;;;31.72;38.25;102154.69;5070573;28;20086;-66
2023/08/22 10:10:24;;;;;;;5.72;1.20;;;;;;;31.90;38.35;102156.91;5105172;28;20419;-66
2023/08/22 10:12:51;;;;;;;4.35;1.00;;;;;;;31.57;39.27;102161.28;5070226;28;20024;-66
2023/08/22 10:15:17;;;;;;;1.75;1.10;;;;;;;31.69;38.50;102162.22;5070734;28;20059;-66
2023/08/22 10:17:43;;;;;;;2.47;0.80;;;;;;;31.04;38.57;102153.72;5070736;28;20059;-66
2023/08/22 10:20:12;;;;;;;2.40;0.90;;;;;;;31.59;38.33;102149.44;5104527;28;20400;-65
2023/08/22 10:22:37;;;;;;;2.92;1.30;;;;;;;31.06;39.15;102157.16;5070502;28;20432;-66
2023/08/22 10:25:05;;;;;;;4.10;1.10;;;;;;;30.93;39.80;102152.66;5072090;28;20090;-66
2023/08/22 10:27:31;;;;;;;7.20;1.33;;;;;;;30.88;39.06;102149.44;5070282;28;20024;-66
2023/08/22 10:30:11;;;;;;;1.00;0.80;;;;;;;31.21;39.14;102155.09;5070208;28;20025;-66
2023/08/22 10:32:37;;;;;;;4.97;0.98;;;;;;;31.21;38.77;102164.06;5069844;28;20503;-65
2023/08/22 10:35:21;;;;;;;3.45;1.00;;;;;;;31.09;38.46;102162.31;5072020;28;20028;-66
2023/08/22 10:37:49;;;;;;;3.03;0.93;;;;;;;31.12;38.62;102162.09;5069975;28;20423;-66
2023/08/22 10:40:25;;;;;;;1.13;0.70;;;;;;;31.02;38.52;102161.03;5071565;28;20020;-66
2023/08/22 10:43:03;;;;;;;2.00;1.10;;;;;;;30.79;38.87;102166.34;5069911;28;20032;-66
2023/08/22 10:45:42;;;;;;;3.88;1.60;;;;;;;31.05;39.18;102168.91;5070387;28;20060;-66
2023/08/22 10:48:10;;;;;;;3.15;0.95;;;;;;;30.86;39.96;102173.00;5070057;28;20040;-66
2023/08/22 10:50:35;;;;;;;2.13;0.90;;;;;;;30.51;41.09;102157.59;5069820;28;20058;-65
2023/08/22 10:53:21;;;;;;;6.03;0.80;;;;;;;31.57;38.89;102156.78;5070445;28;20070;-65
2023/08/22 10:55:47;;;;;;;1.95;0.80;;;;;;;31.29;38.67;102164.31;5070852;28;20025;-68
2023/08/22 10:58:32;;;;;;;4.43;1.10;;;;;;;31.04;39.23;102156.41;5070267;28;20053;-67
2023/08/22 11:00:58;;;;;;;2.90;0.82;;;;;;;31.15;39.07;102159.16;5069559;28;20035;-67
2023/08/22 11:03:23;;;;;;;2.35;1.10;;;;;;;30.44;41.33;102167.13;5069880;28;20106;-67
2023/08/22 11:05:50;;;;;;;2.45;1.65;;;;;;;31.10;39.76;102174.84;5069508;28;20133;-67
2023/08/22 11:08:16;;;;;;;2.75;1.25;;;;;;;30.67;40.39;102173.53;5069533;28;20025;-67
2023/08/22 11:10:43;;;;;;;1.85;1.00;;;;;;;30.77;40.00;102173.69;5069394;28;20036;-66
2023/08/22 11:13:09;;;;;;;6.20;1.05;;;;;;;31.49;39.39;102170.03;5070399;28;20377;-67
2023/08/22 11:15:39;;;;;;;2.58;1.25;;;;;;;31.29;39.05;102161.63;5068949;28;20026;-67
2023/08/22 11:18:05;;;;;;;2.92;1.05;;;;;;;31.29;39.45;102163.47;5069905;28;20438;-66
2023/08/22 11:20:31;;;;;;;3.65;1.23;;;;;;;31.16;38.84;102170.78;5069914;28;20024;-66
2023/08/22 11:22:56;;;;;;;4.38;1.15;;;;;;;31.07;39.82;102169.69;5068875;28;20056;-67